Agua Branca, Brazil
Current Conditions -  °F | °C
As of 9:00 PM on Saturday 25 Oct 2014 (Local Time) from SBTE Reporting Station
Clear Clear  
Wind Chill: 90°   Ceiling: Unl
Heat Index: 90°   Visibility: 6mi
Dew Point: 57°   Wind: 3mph
Humidity: 33%   Direction: 70°ENE
Pressure: 29.77"   Gusts: NA
Location:  5.89°S, 42.64°W
Report Text: SBTE 260000Z 07003KT CAVOK 32/14 Q1008
Loading
Personal Weather Stations






























Interactive Weather Map
Tropical Storm Tracking
New forecast layout! Learn more

10-Day Weather Forecast

Advertisements
Track Severe Weather on mobile